sensor_id;sensor_type;location;lat;lon;timestamp;P1;durP1;ratioP1;P2;durP2;ratioP2
40254;SDS011;25973;52.368;4.940;2023-05-20T00:01:33;8.68;;;2.33;;
40254;SDS011;25973;52.368;4.940;2023-05-20T00:03:58;7.47;;;2.80;;
40254;SDS011;25973;52.368;4.940;2023-05-20T00:06:24;6.85;;;2.85;;
40254;SDS011;25973;52.368;4.940;2023-05-20T00:08:50;8.50;;;2.95;;
40254;SDS011;25973;52.368;4.940;2023-05-20T00:11:15;9.68;;;2.65;;
40254;SDS011;25973;52.368;4.940;2023-05-20T00:13:41;6.50;;;3.17;;
40254;SDS011;25973;52.368;4.940;2023-05-20T00:16:06;10.65;;;2.85;;
40254;SDS011;25973;52.368;4.940;2023-05-20T00:18:32;8.23;;;2.78;;
40254;SDS011;25973;52.368;4.940;2023-05-20T00:20:57;10.38;;;2.85;;
40254;SDS011;25973;52.368;4.940;2023-05-20T00:23:23;14.70;;;4.07;;
40254;SDS011;25973;52.368;4.940;2023-05-20T00:25:49;13.95;;;3.78;;
40254;SDS011;25973;52.368;4.940;2023-05-20T00:28:14;10.95;;;3.67;;
40254;SDS011;25973;52.368;4.940;2023-05-20T00:30:40;13.55;;;3.10;;
40254;SDS011;25973;52.368;4.940;2023-05-20T00:33:06;8.07;;;3.00;;
40254;SDS011;25973;52.368;4.940;2023-05-20T00:35:31;9.80;;;2.83;;
40254;SDS011;25973;52.368;4.940;2023-05-20T00:38:00;8.30;;;3.33;;
40254;SDS011;25973;52.368;4.940;2023-05-20T00:40:26;10.07;;;3.00;;
40254;SDS011;25973;52.368;4.940;2023-05-20T00:42:51;12.40;;;3.60;;
40254;SDS011;25973;52.368;4.940;2023-05-20T00:45:17;8.32;;;3.25;;
40254;SDS011;25973;52.368;4.940;2023-05-20T00:47:42;14.07;;;3.10;;
40254;SDS011;25973;52.368;4.940;2023-05-20T00:50:08;13.55;;;3.33;;
40254;SDS011;25973;52.368;4.940;2023-05-20T00:52:35;8.88;;;3.85;;
40254;SDS011;25973;52.368;4.940;2023-05-20T00:55:01;8.30;;;3.03;;
40254;SDS011;25973;52.368;4.940;2023-05-20T00:57:27;8.43;;;3.10;;
40254;SDS011;25973;52.368;4.940;2023-05-20T00:59:53;11.00;;;2.90;;
40254;SDS011;25973;52.368;4.940;2023-05-20T01:02:19;6.95;;;3.15;;
40254;SDS011;25973;52.368;4.940;2023-05-20T01:04:45;8.20;;;3.53;;
40254;SDS011;25973;52.368;4.940;2023-05-20T01:07:11;11.30;;;3.20;;
40254;SDS011;25973;52.368;4.940;2023-05-20T01:09:39;10.40;;;3.30;;
40254;SDS011;25973;52.368;4.940;2023-05-20T01:12:19;11.18;;;3.13;;
40254;SDS011;25973;52.368;4.940;2023-05-20T01:15:07;15.07;;;4.20;;
40254;SDS011;25973;52.368;4.940;2023-05-20T01:17:35;8.90;;;2.80;;
40254;SDS011;25973;52.368;4.940;2023-05-20T01:20:04;8.98;;;3.10;;
40254;SDS011;25973;52.368;4.940;2023-05-20T01:22:35;7.80;;;2.97;;
40254;SDS011;25973;52.368;4.940;2023-05-20T01:25:10;13.75;;;3.60;;
40254;SDS011;25973;52.368;4.940;2023-05-20T01:27:36;7.72;;;3.15;;
40254;SDS011;25973;52.368;4.940;2023-05-20T01:30:01;9.30;;;2.55;;
40254;SDS011;25973;52.368;4.940;2023-05-20T01:32:30;8.65;;;2.88;;
40254;SDS011;25973;52.368;4.940;2023-05-20T01:35:01;7.47;;;2.95;;
40254;SDS011;25973;52.368;4.940;2023-05-20T01:37:27;12.75;;;3.22;;
40254;SDS011;25973;52.368;4.940;2023-05-20T01:39:55;7.05;;;2.83;;
40254;SDS011;25973;52.368;4.940;2023-05-20T01:42:21;6.97;;;2.88;;
40254;SDS011;25973;52.368;4.940;2023-05-20T01:44:50;10.13;;;3.60;;
40254;SDS011;25973;52.368;4.940;2023-05-20T01:47:16;6.75;;;3.38;;
40254;SDS011;25973;52.368;4.940;2023-05-20T01:49:41;7.97;;;3.08;;
40254;SDS011;25973;52.368;4.940;2023-05-20T01:52:10;9.07;;;3.25;;
40254;SDS011;25973;52.368;4.940;2023-05-20T01:54:35;8.30;;;2.80;;
40254;SDS011;25973;52.368;4.940;2023-05-20T01:57:01;7.88;;;2.80;;
40254;SDS011;25973;52.368;4.940;2023-05-20T01:59:26;6.85;;;2.83;;
40254;SDS011;25973;52.368;4.940;2023-05-20T02:01:52;5.88;;;3.00;;
40254;SDS011;25973;52.368;4.940;2023-05-20T02:04:18;12.07;;;3.00;;
40254;SDS011;25973;52.368;4.940;2023-05-20T02:06:43;9.60;;;2.90;;
40254;SDS011;25973;52.368;4.940;2023-05-20T02:09:09;8.10;;;3.20;;
40254;SDS011;25973;52.368;4.940;2023-05-20T02:11:35;7.03;;;2.97;;
40254;SDS011;25973;52.368;4.940;2023-05-20T02:14:01;11.82;;;3.22;;
40254;SDS011;25973;52.368;4.940;2023-05-20T02:16:26;8.38;;;3.13;;
40254;SDS011;25973;52.368;4.940;2023-05-20T02:18:52;11.27;;;2.92;;
40254;SDS011;25973;52.368;4.940;2023-05-20T02:21:17;8.43;;;2.72;;
40254;SDS011;25973;52.368;4.940;2023-05-20T02:23:43;10.90;;;2.55;;
40254;SDS011;25973;52.368;4.940;2023-05-20T02:26:09;9.73;;;3.40;;
40254;SDS011;25973;52.368;4.940;2023-05-20T02:28:34;9.20;;;2.80;;
40254;SDS011;25973;52.368;4.940;2023-05-20T02:31:02;7.43;;;2.55;;
40254;SDS011;25973;52.368;4.940;2023-05-20T02:33:27;7.20;;;2.80;;
40254;SDS011;25973;52.368;4.940;2023-05-20T02:35:53;6.18;;;2.90;;
40254;SDS011;25973;52.368;4.940;2023-05-20T02:38:19;9.57;;;2.85;;
40254;SDS011;25973;52.368;4.940;2023-05-20T02:40:44;13.50;;;2.80;;
40254;SDS011;25973;52.368;4.940;2023-05-20T02:43:10;11.70;;;3.63;;
40254;SDS011;25973;52.368;4.940;2023-05-20T02:45:35;7.85;;;3.33;;
40254;SDS011;25973;52.368;4.940;2023-05-20T02:48:01;9.18;;;2.78;;
40254;SDS011;25973;52.368;4.940;2023-05-20T02:50:26;7.50;;;1.88;;
40254;SDS011;25973;52.368;4.940;2023-05-20T02:52:52;12.00;;;2.40;;
40254;SDS011;25973;52.368;4.940;2023-05-20T02:55:18;10.27;;;2.35;;
40254;SDS011;25973;52.368;4.940;2023-05-20T02:57:43;8.38;;;2.63;;
40254;SDS011;25973;52.368;4.940;2023-05-20T03:00:09;12.60;;;2.92;;
40254;SDS011;25973;52.368;4.940;2023-05-20T03:02:37;13.07;;;3.03;;
40254;SDS011;25973;52.368;4.940;2023-05-20T03:05:02;12.80;;;2.90;;
40254;SDS011;25973;52.368;4.940;2023-05-20T03:07:29;8.85;;;2.47;;
40254;SDS011;25973;52.368;4.940;2023-05-20T03:09:55;8.38;;;2.85;;
40254;SDS011;25973;52.368;4.940;2023-05-20T03:12:22;8.32;;;3.17;;
40254;SDS011;25973;52.368;4.940;2023-05-20T03:14:50;11.70;;;2.78;;
40254;SDS011;25973;52.368;4.940;2023-05-20T03:17:19;11.27;;;2.75;;
40254;SDS011;25973;52.368;4.940;2023-05-20T03:19:45;4.88;;;2.40;;
40254;SDS011;25973;52.368;4.940;2023-05-20T03:22:10;7.72;;;2.42;;
40254;SDS011;25973;52.368;4.940;2023-05-20T03:24:36;6.55;;;3.22;;
40254;SDS011;25973;52.368;4.940;2023-05-20T03:27:02;12.90;;;2.92;;
40254;SDS011;25973;52.368;4.940;2023-05-20T03:29:28;9.23;;;2.80;;
40254;SDS011;25973;52.368;4.940;2023-05-20T03:31:53;6.55;;;2.83;;
40254;SDS011;25973;52.368;4.940;2023-05-20T03:34:19;7.35;;;3.40;;
40254;SDS011;25973;52.368;4.940;2023-05-20T03:36:44;8.32;;;2.75;;
40254;SDS011;25973;52.368;4.940;2023-05-20T03:39:10;8.00;;;3.25;;
40254;SDS011;25973;52.368;4.940;2023-05-20T03:41:36;17.42;;;3.30;;
40254;SDS011;25973;52.368;4.940;2023-05-20T03:44:02;7.68;;;3.10;;
40254;SDS011;25973;52.368;4.940;2023-05-20T03:46:27;8.82;;;3.08;;
40254;SDS011;25973;52.368;4.940;2023-05-20T03:48:54;8.65;;;2.70;;
40254;SDS011;25973;52.368;4.940;2023-05-20T03:51:20;5.72;;;2.40;;
40254;SDS011;25973;52.368;4.940;2023-05-20T03:53:45;6.80;;;2.63;;
40254;SDS011;25973;52.368;4.940;2023-05-20T03:56:11;9.38;;;2.85;;
40254;SDS011;25973;52.368;4.940;2023-05-20T03:58:36;6.60;;;3.28;;
40254;SDS011;25973;52.368;4.940;2023-05-20T04:01:02;10.80;;;2.97;;
40254;SDS011;25973;52.368;4.940;2023-05-20T04:03:28;7.05;;;2.92;;
40254;SDS011;25973;52.368;4.940;2023-05-20T04:05:54;7.10;;;3.22;;
40254;SDS011;25973;52.368;4.940;2023-05-20T04:08:19;8.02;;;2.78;;
40254;SDS011;25973;52.368;4.940;2023-05-20T04:10:46;7.82;;;2.80;;
40254;SDS011;25973;52.368;4.940;2023-05-20T04:13:11;7.18;;;2.70;;
40254;SDS011;25973;52.368;4.940;2023-05-20T04:15:37;4.78;;;2.30;;
40254;SDS011;25973;52.368;4.940;2023-05-20T04:18:03;8.75;;;2.97;;
40254;SDS011;25973;52.368;4.940;2023-05-20T04:20:30;10.45;;;2.95;;
40254;SDS011;25973;52.368;4.940;2023-05-20T04:22:55;7.07;;;3.35;;
40254;SDS011;25973;52.368;4.940;2023-05-20T04:25:21;5.68;;;2.22;;
40254;SDS011;25973;52.368;4.940;2023-05-20T04:27:48;9.13;;;3.13;;
40254;SDS011;25973;52.368;4.940;2023-05-20T04:30:14;7.32;;;2.95;;
40254;SDS011;25973;52.368;4.940;2023-05-20T04:32:42;8.60;;;2.58;;
40254;SDS011;25973;52.368;4.940;2023-05-20T04:35:08;7.20;;;3.03;;
40254;SDS011;25973;52.368;4.940;2023-05-20T04:37:36;9.80;;;2.88;;
40254;SDS011;25973;52.368;4.940;2023-05-20T04:40:02;9.18;;;2.42;;
40254;SDS011;25973;52.368;4.940;2023-05-20T04:42:28;5.70;;;2.60;;
40254;SDS011;25973;52.368;4.940;2023-05-20T04:44:54;4.97;;;2.72;;
40254;SDS011;25973;52.368;4.940;2023-05-20T04:47:19;4.28;;;2.35;;
40254;SDS011;25973;52.368;4.940;2023-05-20T04:49:45;10.38;;;3.35;;
40254;SDS011;25973;52.368;4.940;2023-05-20T04:52:10;7.95;;;2.05;;
40254;SDS011;25973;52.368;4.940;2023-05-20T04:54:36;4.30;;;2.28;;
40254;SDS011;25973;52.368;4.940;2023-05-20T04:57:02;7.00;;;2.20;;
40254;SDS011;25973;52.368;4.940;2023-05-20T04:59:28;7.05;;;2.13;;
40254;SDS011;25973;52.368;4.940;2023-05-20T05:01:53;11.85;;;2.45;;
40254;SDS011;25973;52.368;4.940;2023-05-20T05:04:19;10.75;;;2.90;;
40254;SDS011;25973;52.368;4.940;2023-05-20T05:06:46;9.00;;;2.38;;
40254;SDS011;25973;52.368;4.940;2023-05-20T05:09:12;5.70;;;2.30;;
40254;SDS011;25973;52.368;4.940;2023-05-20T05:11:38;10.20;;;2.55;;
40254;SDS011;25973;52.368;4.940;2023-05-20T05:14:03;8.88;;;2.75;;
40254;SDS011;25973;52.368;4.940;2023-05-20T05:16:29;7.00;;;2.33;;
40254;SDS011;25973;52.368;4.940;2023-05-20T05:18:55;9.70;;;2.47;;
40254;SDS011;25973;52.368;4.940;2023-05-20T05:21:20;10.45;;;2.50;;
40254;SDS011;25973;52.368;4.940;2023-05-20T05:23:46;3.30;;;2.20;;
40254;SDS011;25973;52.368;4.940;2023-05-20T05:26:11;6.47;;;2.15;;
40254;SDS011;25973;52.368;4.940;2023-05-20T05:28:37;13.95;;;3.15;;
40254;SDS011;25973;52.368;4.940;2023-05-20T05:31:05;6.75;;;2.40;;
40254;SDS011;25973;52.368;4.940;2023-05-20T05:33:31;6.22;;;2.28;;
40254;SDS011;25973;52.368;4.940;2023-05-20T05:35:56;5.88;;;2.22;;
40254;SDS011;25973;52.368;4.940;2023-05-20T05:38:23;6.13;;;2.40;;
40254;SDS011;25973;52.368;4.940;2023-05-20T05:40:49;6.03;;;2.33;;
40254;SDS011;25973;52.368;4.940;2023-05-20T05:43:14;8.60;;;2.38;;
40254;SDS011;25973;52.368;4.940;2023-05-20T05:45:40;9.90;;;3.28;;
40254;SDS011;25973;52.368;4.940;2023-05-20T05:48:07;7.03;;;2.28;;
40254;SDS011;25973;52.368;4.940;2023-05-20T05:50:32;5.03;;;2.22;;
40254;SDS011;25973;52.368;4.940;2023-05-20T05:52:58;10.40;;;2.38;;
40254;SDS011;25973;52.368;4.940;2023-05-20T05:55:23;7.80;;;2.63;;
40254;SDS011;25973;52.368;4.940;2023-05-20T05:57:49;8.88;;;3.30;;
40254;SDS011;25973;52.368;4.940;2023-05-20T06:00:15;8.82;;;2.38;;
40254;SDS011;25973;52.368;4.940;2023-05-20T06:02:41;9.00;;;2.58;;
40254;SDS011;25973;52.368;4.940;2023-05-20T06:05:07;7.78;;;2.67;;
40254;SDS011;25973;52.368;4.940;2023-05-20T06:07:33;7.22;;;2.53;;
40254;SDS011;25973;52.368;4.940;2023-05-20T06:09:59;12.82;;;2.95;;
40254;SDS011;25973;52.368;4.940;2023-05-20T06:12:24;9.55;;;3.28;;
40254;SDS011;25973;52.368;4.940;2023-05-20T06:14:50;6.53;;;2.70;;
40254;SDS011;25973;52.368;4.940;2023-05-20T06:17:15;6.15;;;2.55;;
40254;SDS011;25973;52.368;4.940;2023-05-20T06:19:41;6.25;;;2.33;;
40254;SDS011;25973;52.368;4.940;2023-05-20T06:22:06;5.72;;;2.65;;
40254;SDS011;25973;52.368;4.940;2023-05-20T06:24:32;4.75;;;2.05;;
40254;SDS011;25973;52.368;4.940;2023-05-20T06:26:58;5.50;;;2.30;;
40254;SDS011;25973;52.368;4.940;2023-05-20T06:29:24;11.13;;;3.00;;
40254;SDS011;25973;52.368;4.940;2023-05-20T06:31:49;11.07;;;2.67;;
40254;SDS011;25973;52.368;4.940;2023-05-20T06:34:15;5.70;;;2.20;;
40254;SDS011;25973;52.368;4.940;2023-05-20T06:36:40;7.22;;;2.10;;
40254;SDS011;25973;52.368;4.940;2023-05-20T06:39:06;4.57;;;1.88;;
40254;SDS011;25973;52.368;4.940;2023-05-20T06:41:36;5.18;;;1.98;;
40254;SDS011;25973;52.368;4.940;2023-05-20T06:44:03;7.65;;;2.38;;
40254;SDS011;25973;52.368;4.940;2023-05-20T06:46:28;3.80;;;1.70;;
40254;SDS011;25973;52.368;4.940;2023-05-20T06:48:54;7.35;;;2.63;;
40254;SDS011;25973;52.368;4.940;2023-05-20T06:51:19;5.43;;;2.13;;
40254;SDS011;25973;52.368;4.940;2023-05-20T06:53:45;6.90;;;1.70;;
40254;SDS011;25973;52.368;4.940;2023-05-20T06:56:11;4.82;;;1.90;;
40254;SDS011;25973;52.368;4.940;2023-05-20T06:58:37;5.35;;;2.25;;
40254;SDS011;25973;52.368;4.940;2023-05-20T07:01:02;8.60;;;2.50;;
40254;SDS011;25973;52.368;4.940;2023-05-20T07:03:28;7.78;;;2.08;;
40254;SDS011;25973;52.368;4.940;2023-05-20T07:05:53;9.15;;;2.80;;
40254;SDS011;25973;52.368;4.940;2023-05-20T07:08:19;6.75;;;1.70;;
40254;SDS011;25973;52.368;4.940;2023-05-20T07:10:45;3.58;;;1.85;;
40254;SDS011;25973;52.368;4.940;2023-05-20T07:13:10;4.68;;;2.17;;
40254;SDS011;25973;52.368;4.940;2023-05-20T07:15:36;4.90;;;1.95;;
40254;SDS011;25973;52.368;4.940;2023-05-20T07:18:02;8.18;;;1.83;;
40254;SDS011;25973;52.368;4.940;2023-05-20T07:20:28;4.07;;;1.70;;
40254;SDS011;25973;52.368;4.940;2023-05-20T07:22:53;6.65;;;2.05;;
40254;SDS011;25973;52.368;4.940;2023-05-20T07:25:19;4.75;;;1.88;;
40254;SDS011;25973;52.368;4.940;2023-05-20T07:27:44;4.68;;;1.73;;
40254;SDS011;25973;52.368;4.940;2023-05-20T07:30:10;6.28;;;1.92;;
40254;SDS011;25973;52.368;4.940;2023-05-20T07:32:36;3.72;;;1.60;;
40254;SDS011;25973;52.368;4.940;2023-05-20T07:35:01;8.02;;;2.35;;
40254;SDS011;25973;52.368;4.940;2023-05-20T07:37:27;4.90;;;1.88;;
40254;SDS011;25973;52.368;4.940;2023-05-20T07:39:53;7.30;;;2.40;;
40254;SDS011;25973;52.368;4.940;2023-05-20T07:42:18;5.60;;;1.40;;
40254;SDS011;25973;52.368;4.940;2023-05-20T07:44:44;3.30;;;1.60;;
40254;SDS011;25973;52.368;4.940;2023-05-20T07:47:09;3.67;;;2.03;;
40254;SDS011;25973;52.368;4.940;2023-05-20T07:49:35;3.95;;;1.75;;
40254;SDS011;25973;52.368;4.940;2023-05-20T07:52:00;3.70;;;1.92;;
40254;SDS011;25973;52.368;4.940;2023-05-20T07:54:26;5.03;;;1.67;;
40254;SDS011;25973;52.368;4.940;2023-05-20T07:56:52;3.83;;;1.58;;
40254;SDS011;25973;52.368;4.940;2023-05-20T07:59:17;3.10;;;1.70;;
40254;SDS011;25973;52.368;4.940;2023-05-20T08:01:43;5.13;;;1.80;;
40254;SDS011;25973;52.368;4.940;2023-05-20T08:04:08;3.63;;;1.95;;
40254;SDS011;25973;52.368;4.940;2023-05-20T08:06:34;3.58;;;1.75;;
40254;SDS011;25973;52.368;4.940;2023-05-20T08:09:00;5.78;;;1.80;;
40254;SDS011;25973;52.368;4.940;2023-05-20T08:11:26;7.20;;;2.00;;
40254;SDS011;25973;52.368;4.940;2023-05-20T08:13:52;4.22;;;1.73;;
40254;SDS011;25973;52.368;4.940;2023-05-20T08:16:17;8.45;;;2.28;;
40254;SDS011;25973;52.368;4.940;2023-05-20T08:18:44;7.45;;;1.77;;
40254;SDS011;25973;52.368;4.940;2023-05-20T08:21:10;4.07;;;1.55;;
40254;SDS011;25973;52.368;4.940;2023-05-20T08:23:36;3.45;;;1.58;;
40254;SDS011;25973;52.368;4.940;2023-05-20T08:26:02;4.50;;;1.75;;
40254;SDS011;25973;52.368;4.940;2023-05-20T08:28:28;6.30;;;1.90;;
40254;SDS011;25973;52.368;4.940;2023-05-20T08:30:53;3.47;;;1.90;;
40254;SDS011;25973;52.368;4.940;2023-05-20T08:33:19;9.57;;;2.13;;
40254;SDS011;25973;52.368;4.940;2023-05-20T08:35:46;3.35;;;1.55;;
40254;SDS011;25973;52.368;4.940;2023-05-20T08:38:14;5.25;;;2.13;;
40254;SDS011;25973;52.368;4.940;2023-05-20T08:40:40;5.63;;;2.25;;
40254;SDS011;25973;52.368;4.940;2023-05-20T08:43:06;3.05;;;1.60;;
40254;SDS011;25973;52.368;4.940;2023-05-20T08:45:32;4.32;;;1.60;;
40254;SDS011;25973;52.368;4.940;2023-05-20T08:47:59;3.05;;;1.83;;
40254;SDS011;25973;52.368;4.940;2023-05-20T08:50:25;5.15;;;1.52;;
40254;SDS011;25973;52.368;4.940;2023-05-20T08:52:51;4.53;;;1.80;;
40254;SDS011;25973;52.368;4.940;2023-05-20T08:55:18;3.92;;;1.50;;
40254;SDS011;25973;52.368;4.940;2023-05-20T08:57:50;4.15;;;2.03;;
40254;SDS011;25973;52.368;4.940;2023-05-20T09:00:19;5.03;;;2.17;;
40254;SDS011;25973;52.368;4.940;2023-05-20T09:02:47;2.97;;;1.60;;
40254;SDS011;25973;52.368;4.940;2023-05-20T09:05:13;3.83;;;2.00;;
40254;SDS011;25973;52.368;4.940;2023-05-20T09:07:39;5.65;;;1.60;;
40254;SDS011;25973;52.368;4.940;2023-05-20T09:10:06;5.28;;;1.60;;
40254;SDS011;25973;52.368;4.940;2023-05-20T09:12:33;8.50;;;2.03;;
40254;SDS011;25973;52.368;4.940;2023-05-20T09:14:59;8.35;;;2.30;;
40254;SDS011;25973;52.368;4.940;2023-05-20T09:17:25;3.80;;;2.20;;
40254;SDS011;25973;52.368;4.940;2023-05-20T09:19:51;8.50;;;2.55;;
40254;SDS011;25973;52.368;4.940;2023-05-20T09:22:21;5.22;;;2.25;;
40254;SDS011;25973;52.368;4.940;2023-05-20T09:24:48;6.77;;;2.17;;
40254;SDS011;25973;52.368;4.940;2023-05-20T09:27:14;3.83;;;1.88;;
40254;SDS011;25973;52.368;4.940;2023-05-20T09:29:40;2.50;;;1.30;;
40254;SDS011;25973;52.368;4.940;2023-05-20T09:32:07;5.97;;;1.50;;
40254;SDS011;25973;52.368;4.940;2023-05-20T09:34:34;5.40;;;2.08;;
40254;SDS011;25973;52.368;4.940;2023-05-20T09:37:01;7.07;;;1.70;;
40254;SDS011;25973;52.368;4.940;2023-05-20T09:39:29;4.13;;;1.70;;
40254;SDS011;25973;52.368;4.940;2023-05-20T09:42:01;5.03;;;2.20;;
40254;SDS011;25973;52.368;4.940;2023-05-20T09:44:31;6.05;;;2.70;;
40254;SDS011;25973;52.368;4.940;2023-05-20T09:46:58;7.13;;;2.22;;
40254;SDS011;25973;52.368;4.940;2023-05-20T09:49:25;12.90;;;3.45;;
40254;SDS011;25973;52.368;4.940;2023-05-20T09:51:52;6.70;;;1.33;;
40254;SDS011;25973;52.368;4.940;2023-05-20T09:54:19;3.75;;;1.48;;
40254;SDS011;25973;52.368;4.940;2023-05-20T09:56:46;3.75;;;1.38;;
40254;SDS011;25973;52.368;4.940;2023-05-20T09:59:12;3.60;;;1.70;;
40254;SDS011;25973;52.368;4.940;2023-05-20T10:01:41;4.30;;;1.52;;
40254;SDS011;25973;52.368;4.940;2023-05-20T10:04:07;3.53;;;1.75;;
40254;SDS011;25973;52.368;4.940;2023-05-20T10:06:42;6.00;;;1.95;;
40254;SDS011;25973;52.368;4.940;2023-05-20T10:10:28;5.43;;;1.90;;
40254;SDS011;25973;52.368;4.940;2023-05-20T10:12:59;4.28;;;1.80;;
40254;SDS011;25973;52.368;4.940;2023-05-20T10:15:45;2.88;;;1.65;;
40254;SDS011;25973;52.368;4.940;2023-05-20T10:18:21;2.50;;;1.42;;
40254;SDS011;25973;52.368;4.940;2023-05-20T10:20:50;3.15;;;1.50;;
40254;SDS011;25973;52.368;4.940;2023-05-20T10:23:19;4.40;;;1.48;;
40254;SDS011;25973;52.368;4.940;2023-05-20T10:25:50;3.47;;;1.50;;
40254;SDS011;25973;52.368;4.940;2023-05-20T10:28:29;6.97;;;1.58;;
40254;SDS011;25973;52.368;4.940;2023-05-20T10:31:13;3.00;;;1.50;;
40254;SDS011;25973;52.368;4.940;2023-05-20T10:33:42;3.60;;;1.33;;
40254;SDS011;25973;52.368;4.940;2023-05-20T10:36:09;9.38;;;1.73;;
40254;SDS011;25973;52.368;4.940;2023-05-20T10:38:52;9.95;;;1.88;;
40254;SDS011;25973;52.368;4.940;2023-05-20T10:41:25;4.13;;;1.58;;
40254;SDS011;25973;52.368;4.940;2023-05-20T10:44:02;5.03;;;1.55;;
40254;SDS011;25973;52.368;4.940;2023-05-20T10:46:28;4.40;;;1.92;;
40254;SDS011;25973;52.368;4.940;2023-05-20T10:48:55;6.88;;;1.67;;
40254;SDS011;25973;52.368;4.940;2023-05-20T10:51:21;7.18;;;1.60;;
40254;SDS011;25973;52.368;4.940;2023-05-20T10:53:50;3.05;;;1.30;;
40254;SDS011;25973;52.368;4.940;2023-05-20T10:56:19;5.07;;;1.35;;
40254;SDS011;25973;52.368;4.940;2023-05-20T10:58:47;7.53;;;1.85;;
40254;SDS011;25973;52.368;4.940;2023-05-20T11:01:12;5.47;;;1.40;;
40254;SDS011;25973;52.368;4.940;2023-05-20T11:03:39;5.10;;;1.90;;
40254;SDS011;25973;52.368;4.940;2023-05-20T11:06:12;4.72;;;1.80;;
40254;SDS011;25973;52.368;4.940;2023-05-20T11:08:41;6.25;;;1.25;;
40254;SDS011;25973;52.368;4.940;2023-05-20T11:11:06;3.95;;;1.48;;
40254;SDS011;25973;52.368;4.940;2023-05-20T11:13:32;3.03;;;1.30;;
40254;SDS011;25973;52.368;4.940;2023-05-20T11:15:59;1.38;;;0.80;;
40254;SDS011;25973;52.368;4.940;2023-05-20T11:18:26;3.95;;;1.58;;
40254;SDS011;25973;52.368;4.940;2023-05-20T11:20:54;4.57;;;1.48;;
40254;SDS011;25973;52.368;4.940;2023-05-20T11:23:20;4.00;;;1.17;;
40254;SDS011;25973;52.368;4.940;2023-05-20T11:25:48;6.63;;;1.75;;
40254;SDS011;25973;52.368;4.940;2023-05-20T11:28:18;7.45;;;1.88;;
40254;SDS011;25973;52.368;4.940;2023-05-20T11:30:45;7.75;;;1.83;;
40254;SDS011;25973;52.368;4.940;2023-05-20T11:33:12;3.45;;;1.48;;
40254;SDS011;25973;52.368;4.940;2023-05-20T11:35:50;8.68;;;2.47;;
40254;SDS011;25973;52.368;4.940;2023-05-20T11:38:17;18.92;;;3.42;;
40254;SDS011;25973;52.368;4.940;2023-05-20T11:40:44;4.82;;;1.52;;
40254;SDS011;25973;52.368;4.940;2023-05-20T11:43:11;3.10;;;1.25;;
40254;SDS011;25973;52.368;4.940;2023-05-20T11:45:38;10.82;;;2.55;;
40254;SDS011;25973;52.368;4.940;2023-05-20T11:48:08;7.05;;;1.10;;
40254;SDS011;25973;52.368;4.940;2023-05-20T11:50:39;4.15;;;1.00;;
40254;SDS011;25973;52.368;4.940;2023-05-20T11:53:10;4.65;;;1.50;;
40254;SDS011;25973;52.368;4.940;2023-05-20T11:55:43;2.92;;;1.75;;
40254;SDS011;25973;52.368;4.940;2023-05-20T11:58:15;10.98;;;1.48;;
40254;SDS011;25973;52.368;4.940;2023-05-20T12:00:43;3.10;;;1.45;;
40254;SDS011;25973;52.368;4.940;2023-05-20T12:03:09;4.93;;;1.27;;
40254;SDS011;25973;52.368;4.940;2023-05-20T12:05:35;2.17;;;1.00;;
40254;SDS011;25973;52.368;4.940;2023-05-20T12:08:01;3.53;;;1.15;;
40254;SDS011;25973;52.368;4.940;2023-05-20T12:10:27;3.92;;;1.15;;
40254;SDS011;25973;52.368;4.940;2023-05-20T12:12:53;2.75;;;1.30;;
40254;SDS011;25973;52.368;4.940;2023-05-20T12:15:19;3.72;;;1.45;;
40254;SDS011;25973;52.368;4.940;2023-05-20T12:17:48;5.28;;;1.83;;
40254;SDS011;25973;52.368;4.940;2023-05-20T12:20:16;8.20;;;1.73;;
40254;SDS011;25973;52.368;4.940;2023-05-20T12:22:43;4.22;;;1.60;;
40254;SDS011;25973;52.368;4.940;2023-05-20T12:25:10;4.97;;;1.42;;
40254;SDS011;25973;52.368;4.940;2023-05-20T12:27:37;7.57;;;1.35;;
40254;SDS011;25973;52.368;4.940;2023-05-20T12:30:03;6.78;;;1.90;;
40254;SDS011;25973;52.368;4.940;2023-05-20T12:32:29;3.53;;;1.58;;
40254;SDS011;25973;52.368;4.940;2023-05-20T12:34:54;6.70;;;1.58;;
40254;SDS011;25973;52.368;4.940;2023-05-20T12:37:20;5.22;;;1.30;;
40254;SDS011;25973;52.368;4.940;2023-05-20T12:39:46;2.97;;;1.30;;
40254;SDS011;25973;52.368;4.940;2023-05-20T12:42:11;4.72;;;1.30;;
40254;SDS011;25973;52.368;4.940;2023-05-20T12:44:37;4.93;;;1.23;;
40254;SDS011;25973;52.368;4.940;2023-05-20T12:47:02;4.63;;;2.30;;
40254;SDS011;25973;52.368;4.940;2023-05-20T12:49:28;4.47;;;1.60;;
40254;SDS011;25973;52.368;4.940;2023-05-20T12:51:54;4.07;;;1.55;;
40254;SDS011;25973;52.368;4.940;2023-05-20T12:54:19;5.25;;;2.17;;
40254;SDS011;25973;52.368;4.940;2023-05-20T12:56:45;1.90;;;1.20;;
40254;SDS011;25973;52.368;4.940;2023-05-20T12:59:13;2.05;;;1.15;;
40254;SDS011;25973;52.368;4.940;2023-05-20T13:01:39;6.88;;;1.63;;
40254;SDS011;25973;52.368;4.940;2023-05-20T13:04:05;3.35;;;1.35;;
40254;SDS011;25973;52.368;4.940;2023-05-20T13:06:30;2.42;;;1.10;;
40254;SDS011;25973;52.368;4.940;2023-05-20T13:08:57;5.85;;;1.80;;
40254;SDS011;25973;52.368;4.940;2023-05-20T13:11:23;2.17;;;1.02;;
40254;SDS011;25973;52.368;4.940;2023-05-20T13:13:49;3.78;;;1.60;;
40254;SDS011;25973;52.368;4.940;2023-05-20T13:16:14;3.03;;;1.30;;
40254;SDS011;25973;52.368;4.940;2023-05-20T13:18:41;8.95;;;3.85;;
40254;SDS011;25973;52.368;4.940;2023-05-20T13:21:07;9.70;;;3.38;;
40254;SDS011;25973;52.368;4.940;2023-05-20T13:23:33;4.07;;;1.30;;
40254;SDS011;25973;52.368;4.940;2023-05-20T13:25:59;7.90;;;1.45;;
40254;SDS011;25973;52.368;4.940;2023-05-20T13:28:25;3.50;;;1.75;;
40254;SDS011;25973;52.368;4.940;2023-05-20T13:30:51;4.18;;;1.05;;
40254;SDS011;25973;52.368;4.940;2023-05-20T13:33:16;9.43;;;4.85;;
40254;SDS011;25973;52.368;4.940;2023-05-20T13:35:42;3.90;;;1.63;;
40254;SDS011;25973;52.368;4.940;2023-05-20T13:38:08;2.63;;;1.42;;
40254;SDS011;25973;52.368;4.940;2023-05-20T13:40:34;8.40;;;1.45;;
40254;SDS011;25973;52.368;4.940;2023-05-20T13:42:59;3.75;;;1.10;;
40254;SDS011;25973;52.368;4.940;2023-05-20T13:45:25;6.15;;;1.30;;
40254;SDS011;25973;52.368;4.940;2023-05-20T13:47:51;2.22;;;1.10;;
40254;SDS011;25973;52.368;4.940;2023-05-20T13:50:17;2.78;;;1.33;;
40254;SDS011;25973;52.368;4.940;2023-05-20T13:52:43;2.30;;;1.13;;
40254;SDS011;25973;52.368;4.940;2023-05-20T13:55:08;7.75;;;1.42;;
40254;SDS011;25973;52.368;4.940;2023-05-20T13:57:34;3.33;;;1.08;;
40254;SDS011;25973;52.368;4.940;2023-05-20T13:59:59;4.13;;;0.98;;
40254;SDS011;25973;52.368;4.940;2023-05-20T14:02:25;3.60;;;1.02;;
40254;SDS011;25973;52.368;4.940;2023-05-20T14:04:50;2.20;;;1.42;;
40254;SDS011;25973;52.368;4.940;2023-05-20T14:07:16;3.20;;;1.13;;
40254;SDS011;25973;52.368;4.940;2023-05-20T14:09:41;4.43;;;1.48;;
40254;SDS011;25973;52.368;4.940;2023-05-20T14:12:07;1.92;;;0.90;;
40254;SDS011;25973;52.368;4.940;2023-05-20T14:14:33;3.38;;;1.00;;
40254;SDS011;25973;52.368;4.940;2023-05-20T14:16:58;3.75;;;1.13;;
40254;SDS011;25973;52.368;4.940;2023-05-20T14:19:25;3.95;;;2.03;;
40254;SDS011;25973;52.368;4.940;2023-05-20T14:21:50;6.85;;;1.33;;
40254;SDS011;25973;52.368;4.940;2023-05-20T14:24:16;2.50;;;1.25;;
40254;SDS011;25973;52.368;4.940;2023-05-20T14:26:41;2.97;;;1.02;;
40254;SDS011;25973;52.368;4.940;2023-05-20T14:29:07;6.07;;;1.20;;
40254;SDS011;25973;52.368;4.940;2023-05-20T14:31:33;6.40;;;1.10;;
40254;SDS011;25973;52.368;4.940;2023-05-20T14:33:58;3.38;;;1.10;;
40254;SDS011;25973;52.368;4.940;2023-05-20T14:36:24;2.67;;;1.23;;
40254;SDS011;25973;52.368;4.940;2023-05-20T14:38:50;2.22;;;1.00;;
40254;SDS011;25973;52.368;4.940;2023-05-20T14:41:15;5.70;;;1.73;;
40254;SDS011;25973;52.368;4.940;2023-05-20T14:43:41;4.68;;;1.00;;